Time;durP1;ratioP1;P1;durP2;ratioP2;P2;SDS_P1;SDS_P2;PMS_P1;PMS_P2;Temp;Humidity;BMP_temperature;BMP_pressure;BME280_temperature;BME280_humidity;BME280_pressure;Samples;Min_cycle;Max_cycle;Signal;HPM_P1;HPM_P2
2023/10/10 00:02:06;;;;;;;14.48;3.47;;;17.60;99.90;;;;;;5095707;28;20024;-79
2023/10/10 00:04:35;;;;;;;18.55;3.42;;;17.60;99.90;;;;;;5096165;28;20031;-79
2023/10/10 00:07:04;;;;;;;16.65;3.58;;;17.60;99.90;;;;;;5095730;28;20158;-79
2023/10/10 00:09:30;;;;;;;12.80;3.42;;;17.50;99.90;;;;;;5096294;28;20020;-79
2023/10/10 00:11:57;;;;;;;11.05;3.17;;;17.50;99.90;;;;;;5095604;28;20020;-79
2023/10/10 00:14:27;;;;;;;10.82;3.47;;;17.50;99.90;;;;;;5097088;28;20024;-79
2023/10/10 00:16:54;;;;;;;12.75;3.72;;;17.50;99.90;;;;;;5095340;28;20492;-80
2023/10/10 00:19:29;;;;;;;13.57;3.53;;;17.50;99.90;;;;;;5095974;28;20028;-79
2023/10/10 00:21:56;;;;;;;16.95;3.45;;;17.50;99.90;;;;;;5095402;28;20024;-79
2023/10/10 00:24:32;;;;;;;14.60;3.97;;;17.40;99.90;;;;;;5096985;28;20028;-79
2023/10/10 00:27:23;;;;;;;10.48;3.20;;;17.40;99.90;;;;;;5095576;28;20030;-79
2023/10/10 00:29:48;;;;;;;16.33;3.58;;;17.40;99.90;;;;;;5096046;28;20043;-79
2023/10/10 00:32:18;;;;;;;12.98;3.50;;;17.30;99.90;;;;;;5095144;28;20461;-79
2023/10/10 00:34:48;;;;;;;12.65;3.47;;;17.30;99.90;;;;;;5095267;28;20052;-79
2023/10/10 00:37:16;;;;;;;16.75;3.63;;;17.30;99.90;;;;;;5096091;28;20036;-79
2023/10/10 00:39:51;;;;;;;15.35;3.15;;;17.30;99.90;;;;;;5095479;28;20028;-79
2023/10/10 00:42:36;;;;;;;15.32;4.03;;;17.30;99.90;;;;;;5096555;28;20480;-79
2023/10/10 00:45:14;;;;;;;10.13;3.38;;;17.30;99.90;;;;;;5094813;28;20035;-79
2023/10/10 00:47:43;;;;;;;10.45;3.05;;;17.20;99.90;;;;;;5095593;28;20039;-79
2023/10/10 00:50:15;;;;;;;16.60;3.55;;;17.20;99.90;;;;;;5093396;28;20067;-79
2023/10/10 00:52:48;;;;;;;12.43;3.90;;;17.20;99.90;;;;;;5096236;28;20020;-79
2023/10/10 00:55:14;;;;;;;14.50;3.42;;;17.20;99.90;;;;;;5094435;28;20059;-79
2023/10/10 00:57:43;;;;;;;14.15;3.45;;;17.10;99.90;;;;;;5095012;28;20039;-79
2023/10/10 01:00:14;;;;;;;17.20;3.78;;;17.10;99.90;;;;;;5095830;28;20406;-79
2023/10/10 01:02:39;;;;;;;12.00;3.22;;;17.00;99.90;;;;;;5094756;28;20024;-79
2023/10/10 01:05:12;;;;;;;11.68;3.42;;;17.00;99.90;;;;;;5094364;28;20035;-79
2023/10/10 01:07:38;;;;;;;17.35;3.80;;;17.00;99.90;;;;;;5094778;28;20031;-79
2023/10/10 01:10:11;;;;;;;20.13;3.90;;;16.90;99.90;;;;;;5094345;28;20123;-79
2023/10/10 01:12:39;;;;;;;9.93;3.95;;;16.90;99.90;;;;;;5095031;28;20028;-77
2023/10/10 01:15:16;;;;;;;18.02;3.25;;;16.80;99.90;;;;;;5095179;28;20120;-79
2023/10/10 01:17:43;;;;;;;15.07;3.47;;;16.90;99.90;;;;;;5094580;28;20040;-79
2023/10/10 01:20:25;;;;;;;12.93;3.22;;;16.90;99.90;;;;;;5094076;28;20098;-79
2023/10/10 01:22:54;;;;;;;11.90;3.75;;;16.80;99.90;;;;;;5095624;28;20026;-79
2023/10/10 01:28:05;;;;;;;19.25;3.88;;;16.80;99.90;;;;;;5095124;28;20059;-79
2023/10/10 01:30:44;;;;;;;11.52;3.60;;;16.70;99.90;;;;;;5094599;28;20050;-78
2023/10/10 01:33:14;;;;;;;13.00;4.20;;;16.80;99.90;;;;;;5094038;28;20035;-79
2023/10/10 01:35:44;;;;;;;14.73;3.42;;;16.70;99.90;;;;;;5093822;28;20127;-79
2023/10/10 01:38:52;;;;;;;11.27;3.60;;;16.70;99.90;;;;;;5093638;28;20046;-79
2023/10/10 01:41:31;;;;;;;11.60;3.33;;;16.60;99.90;;;;;;5076227;28;20032;-79
2023/10/10 01:44:08;;;;;;;13.95;3.47;;;16.60;99.90;;;;;;5094752;28;20024;-79
2023/10/10 01:46:35;;;;;;;14.98;3.88;;;16.60;99.90;;;;;;5094037;28;20024;-79
2023/10/10 01:49:02;;;;;;;15.68;4.25;;;16.60;99.90;;;;;;5094749;28;20036;-80
2023/10/10 01:51:34;;;;;;;13.13;3.22;;;16.60;99.90;;;;;;5095116;28;20059;-78
2023/10/10 01:54:12;;;;;;;17.23;3.75;;;16.50;99.90;;;;;;5093825;28;20025;-79
2023/10/10 01:56:38;;;;;;;18.10;3.75;;;16.60;99.90;;;;;;5094075;28;20020;-79
2023/10/10 01:59:04;;;;;;;12.00;3.20;;;16.60;99.90;;;;;;5093384;28;20039;-79
2023/10/10 02:01:31;;;;;;;14.98;3.40;;;16.50;99.90;;;;;;5094425;28;20411;-79
2023/10/10 02:03:58;;;;;;;14.45;3.45;;;16.40;99.90;;;;;;5094371;28;20021;-79
2023/10/10 02:06:25;;;;;;;9.73;3.88;;;16.50;99.90;;;;;;5094062;28;20024;-79
2023/10/10 02:08:52;;;;;;;14.73;3.88;;;16.50;99.90;;;;;;5094899;28;20024;-79
2023/10/10 02:11:21;;;;;;;13.98;4.53;;;16.40;99.90;;;;;;5093386;28;20039;-79
2023/10/10 02:13:50;;;;;;;12.93;3.72;;;16.40;99.90;;;;;;5093222;28;20024;-79
2023/10/10 02:16:17;;;;;;;20.23;3.90;;;16.30;99.90;;;;;;5092938;28;20322;-79
2023/10/10 02:18:51;;;;;;;13.00;3.25;;;16.30;99.90;;;;;;5093504;28;20040;-79
2023/10/10 02:21:32;;;;;;;15.32;3.50;;;16.30;99.90;;;;;;5094134;28;20198;-79
2023/10/10 02:24:13;;;;;;;13.07;3.07;;;16.20;99.90;;;;;;5094250;28;20027;-79
2023/10/10 02:26:38;;;;;;;14.90;3.70;;;16.20;99.90;;;;;;5093585;28;20093;-79
2023/10/10 02:29:17;;;;;;;13.40;4.13;;;16.20;99.90;;;;;;5094013;28;20068;-79
2023/10/10 02:31:46;;;;;;;13.55;3.30;;;16.10;99.90;;;;;;5094577;28;20028;-79
2023/10/10 02:34:12;;;;;;;10.75;3.28;;;16.20;99.90;;;;;;5093711;28;20186;-79
2023/10/10 02:36:41;;;;;;;13.68;3.28;;;16.20;99.90;;;;;;5092819;28;20477;-79
2023/10/10 02:41:48;;;;;;;12.80;3.42;;;16.30;99.90;;;;;;5094183;28;20028;-79
2023/10/10 02:44:26;;;;;;;13.82;3.28;;;16.40;99.90;;;;;;5093509;28;20028;-78
2023/10/10 02:46:54;;;;;;;18.80;4.20;;;16.30;99.90;;;;;;5094292;28;20035;-79
2023/10/10 02:49:29;;;;;;;12.65;3.08;;;16.40;99.90;;;;;;5093633;28;20024;-79
2023/10/10 02:51:56;;;;;;;10.38;3.17;;;16.40;99.90;;;;;;5093237;28;20114;-79
2023/10/10 02:56:58;;;;;;;11.90;3.13;;;16.50;99.90;;;;;;5094178;28;20032;-79
2023/10/10 02:59:50;;;;;;;13.73;3.75;;;16.50;99.90;;;;;;5094023;28;20035;-79
2023/10/10 03:02:20;;;;;;;13.98;2.92;;;16.50;99.90;;;;;;5092834;28;20042;-79
2023/10/10 03:07:30;;;;;;;16.23;3.47;;;16.50;99.90;;;;;;5093953;28;20060;-79
2023/10/10 03:12:49;;;;;;;12.63;3.38;;;16.50;99.90;;;;;;5093269;28;20123;-79
2023/10/10 03:15:27;;;;;;;13.07;3.22;;;16.50;99.90;;;;;;5091963;28;20029;-79
2023/10/10 03:25:48;;;;;;;16.80;3.50;;;16.40;99.90;;;;;;5093691;28;20028;-79
2023/10/10 05:25:23;;;;;;;13.35;3.08;;;15.00;99.90;;;;;;5095449;28;20031;-79
2023/10/10 05:27:52;;;;;;;16.92;3.67;;;15.00;99.90;;;;;;5094924;28;20036;-79
2023/10/10 05:30:39;;;;;;;14.88;3.72;;;15.00;99.90;;;;;;5093992;28;20111;-80
2023/10/10 05:33:06;;;;;;;13.80;3.65;;;15.00;99.90;;;;;;5095700;28;20109;-79
2023/10/10 05:35:34;;;;;;;14.30;3.78;;;14.90;99.90;;;;;;5094183;28;20051;-79
2023/10/10 05:38:00;;;;;;;14.13;4.50;;;14.90;99.90;;;;;;5094780;28;20054;-79
2023/10/10 05:40:27;;;;;;;15.00;3.30;;;14.90;99.90;;;;;;5095139;28;20051;-79
2023/10/10 05:42:53;;;;;;;12.02;3.42;;;14.70;99.90;;;;;;5094360;28;20491;-79
2023/10/10 05:45:20;;;;;;;12.68;3.50;;;14.70;99.90;;;;;;5094866;28;20036;-79
2023/10/10 05:47:46;;;;;;;9.30;3.03;;;14.60;99.90;;;;;;5094322;28;20039;-79
2023/10/10 05:50:13;;;;;;;10.48;3.50;;;14.60;99.90;;;;;;5094751;28;20129;-80
2023/10/10 05:52:43;;;;;;;13.77;4.25;;;14.70;99.90;;;;;;5094413;28;20089;-79
2023/10/10 05:55:12;;;;;;;14.77;4.03;;;14.70;99.90;;;;;;5095280;28;20028;-79
2023/10/10 05:57:39;;;;;;;14.52;3.60;;;14.60;99.90;;;;;;5094097;28;20044;-79
2023/10/10 06:00:10;;;;;;;14.18;3.90;;;14.60;99.90;;;;;;5093934;28;20028;-79
2023/10/10 06:02:47;;;;;;;14.65;3.40;;;14.60;99.90;;;;;;5093852;28;20091;-79
2023/10/10 06:05:15;;;;;;;13.75;3.70;;;14.70;99.90;;;;;;5093108;28;20050;-79
2023/10/10 06:07:44;;;;;;;14.68;3.85;;;14.70;99.90;;;;;;5093212;28;20120;-79
2023/10/10 06:10:17;;;;;;;12.55;3.35;;;14.70;99.90;;;;;;5093591;28;20107;-79
2023/10/10 06:12:47;;;;;;;14.32;3.85;;;14.70;99.90;;;;;;5094413;28;20035;-80
2023/10/10 06:15:17;;;;;;;13.85;3.38;;;14.70;99.90;;;;;;5094282;28;20082;-80
2023/10/10 06:17:44;;;;;;;8.60;3.63;;;14.80;99.90;;;;;;5093889;28;20036;-78
2023/10/10 06:20:15;;;;;;;13.88;4.07;;;14.80;99.90;;;;;;5094629;28;20030;-78
2023/10/10 06:22:41;;;;;;;14.68;3.55;;;14.80;99.90;;;;;;5094562;28;20028;-78
2023/10/10 06:25:09;;;;;;;15.02;3.40;;;14.80;99.90;;;;;;5094345;28;20035;-78
2023/10/10 06:27:37;;;;;;;11.88;2.90;;;14.80;99.90;;;;;;5092703;28;20028;-79
2023/10/10 06:30:04;;;;;;;10.82;3.45;;;14.70;99.90;;;;;;5093134;28;20060;-78
2023/10/10 06:32:33;;;;;;;13.88;3.55;;;14.70;99.90;;;;;;5093830;28;20031;-79
2023/10/10 06:35:26;;;;;;;12.32;4.05;;;14.70;99.90;;;;;;5092756;28;20048;-78
2023/10/10 06:37:52;;;;;;;11.32;3.20;;;14.80;99.90;;;;;;5094027;28;20496;-78
2023/10/10 06:40:25;;;;;;;12.07;3.65;;;14.90;99.90;;;;;;5093666;28;20059;-80
2023/10/10 06:42:57;;;;;;;14.00;3.67;;;14.90;99.90;;;;;;5093441;28;20122;-80
2023/10/10 06:45:34;;;;;;;13.35;3.72;;;14.80;99.90;;;;;;5092772;28;20028;-80
2023/10/10 06:48:01;;;;;;;13.27;3.88;;;14.90;99.90;;;;;;5093251;28;20031;-81
2023/10/10 06:50:31;;;;;;;15.02;3.75;;;14.90;99.90;;;;;;5092680;28;20046;-80
2023/10/10 06:52:58;;;;;;;13.07;3.70;;;15.00;99.90;;;;;;5093224;28;20024;-80
2023/10/10 06:55:24;;;;;;;12.80;4.43;;;15.00;99.90;;;;;;5092248;28;20024;-80
2023/10/10 06:57:59;;;;;;;14.35;3.72;;;15.00;99.90;;;;;;5093021;28;20032;-80
2023/10/10 07:00:45;;;;;;;12.65;4.03;;;15.10;99.90;;;;;;5092221;28;20071;-80
2023/10/10 07:03:17;;;;;;;17.77;4.13;;;15.20;99.90;;;;;;5093917;28;20024;-79
2023/10/10 07:05:43;;;;;;;16.25;4.90;;;15.20;99.90;;;;;;5093781;28;20021;-79
2023/10/10 07:08:24;;;;;;;15.38;4.47;;;15.30;99.90;;;;;;5093743;28;20190;-79
2023/10/10 07:10:53;;;;;;;17.58;4.20;;;15.20;99.90;;;;;;5092860;28;20484;-80
2023/10/10 07:13:19;;;;;;;16.88;3.95;;;15.20;99.90;;;;;;5093428;28;20656;-80
2023/10/10 07:15:52;;;;;;;12.57;4.50;;;15.30;99.90;;;;;;5092656;28;20127;-80
2023/10/10 07:18:23;;;;;;;20.23;4.20;;;15.30;99.90;;;;;;5093211;28;20047;-82
2023/10/10 07:21:08;;;;;;;19.42;4.22;;;15.40;99.90;;;;;;5092669;28;20078;-79
2023/10/10 07:23:38;;;;;;;19.98;4.43;;;15.50;99.90;;;;;;5092114;28;20035;-80
2023/10/10 07:26:05;;;;;;;13.48;4.50;;;15.50;99.90;;;;;;5092526;28;20063;-80
2023/10/10 07:28:47;;;;;;;15.35;4.47;;;15.60;99.90;;;;;;5092309;28;20028;-80
2023/10/10 07:31:23;;;;;;;18.98;4.03;;;15.70;99.90;;;;;;5092586;28;20097;-80
2023/10/10 07:33:56;;;;;;;13.95;4.15;;;15.80;99.90;;;;;;5091843;28;20021;-79
2023/10/10 07:36:25;;;;;;;16.52;4.75;;;15.80;99.90;;;;;;5091893;28;20082;-80
2023/10/10 07:38:54;;;;;;;14.18;4.40;;;15.90;99.90;;;;;;5092146;28;20032;-79
2023/10/10 07:41:30;;;;;;;14.60;4.60;;;15.90;99.90;;;;;;5091347;28;20027;-79
2023/10/10 07:43:59;;;;;;;14.48;4.65;;;16.00;99.90;;;;;;5090483;28;20081;-79
2023/10/10 07:46:28;;;;;;;15.98;3.95;;;16.10;99.90;;;;;;5091246;28;20035;-80
2023/10/10 07:48:56;;;;;;;14.82;4.20;;;16.10;99.90;;;;;;5092075;28;20496;-80
2023/10/10 07:51:29;;;;;;;12.15;3.97;;;16.10;99.90;;;;;;5091400;28;20073;-79
2023/10/10 07:54:10;;;;;;;17.58;4.20;;;16.20;99.90;;;;;;5092914;28;20016;-80
2023/10/10 07:56:44;;;;;;;16.30;4.05;;;16.20;99.90;;;;;;5090183;28;20024;-81
2023/10/10 07:59:13;;;;;;;12.77;4.00;;;16.30;99.90;;;;;;5091209;28;20036;-80
2023/10/10 08:01:41;;;;;;;17.40;3.55;;;16.40;99.90;;;;;;5095349;28;20028;-81
2023/10/10 08:04:07;;;;;;;14.63;4.28;;;16.40;99.90;;;;;;5093137;28;20099;-81
2023/10/10 08:06:33;;;;;;;15.23;4.38;;;16.40;99.90;;;;;;5095728;28;20065;-80
2023/10/10 08:11:44;;;;;;;13.57;4.25;;;16.70;99.90;;;;;;5097178;28;20029;-81
2023/10/10 08:14:11;;;;;;;14.43;3.75;;;16.70;99.90;;;;;;5095702;28;20028;-80
2023/10/10 08:16:41;;;;;;;15.55;3.83;;;16.80;99.90;;;;;;5096555;28;20081;-81
2023/10/10 08:19:08;;;;;;;22.13;4.43;;;17.00;99.90;;;;;;5095947;28;20036;-81
2023/10/10 08:21:37;;;;;;;15.98;3.47;;;17.00;99.90;;;;;;5095209;28;20024;-81
2023/10/10 08:24:07;;;;;;;13.45;3.50;;;17.10;99.90;;;;;;5095965;28;20468;-81
2023/10/10 08:26:39;;;;;;;14.35;3.47;;;17.10;99.90;;;;;;5095508;28;20030;-80
2023/10/10 08:29:06;;;;;;;;;;;17.20;99.90;;;;;;5096014;28;20024;-81
2023/10/10 08:31:32;;;;;;;10.30;3.25;;;17.20;99.90;;;;;;5095922;28;19912;-81
2023/10/10 08:33:58;;;;;;;11.07;3.42;;;17.30;99.90;;;;;;5096390;28;20063;-80
2023/10/10 08:36:23;;;;;;;12.25;3.50;;;17.30;99.90;;;;;;5095190;28;20028;-80
2023/10/10 08:38:50;;;;;;;14.25;3.72;;;17.40;99.90;;;;;;5096322;28;20048;-83
2023/10/10 08:41:20;;;;;;;13.88;3.03;;;17.40;99.90;;;;;;5096703;28;20027;-81
2023/10/10 08:43:58;;;;;;;14.77;2.97;;;17.40;99.90;;;;;;5095660;28;20028;-81
2023/10/10 08:46:29;;;;;;;21.33;3.80;;;17.50;99.90;;;;;;5093028;28;20028;-81
2023/10/10 08:48:55;;;;;;;;;;;17.60;99.90;;;;;;5107656;28;20031;-82
2023/10/10 08:51:21;;;;;;;12.93;3.05;;;17.60;99.90;;;;;;5098772;28;19910;-81
2023/10/10 08:53:50;;;;;;;13.35;3.42;;;17.60;99.90;;;;;;5097286;28;20024;-83
2023/10/10 08:56:16;;;;;;;14.52;3.53;;;17.70;99.90;;;;;;5110554;28;20015;-84
2023/10/10 08:58:42;;;;;;;14.73;3.72;;;17.70;99.90;;;;;;5104187;28;20036;-86
2023/10/10 09:01:08;;;;;;;14.88;4.00;;;17.70;99.90;;;;;;5108426;28;20130;-84
2023/10/10 09:03:44;;;;;;;11.48;3.35;;;17.80;99.90;;;;;;5096773;28;20028;-82
2023/10/10 09:06:14;;;;;;;12.85;3.25;;;17.80;99.90;;;;;;5094528;28;20024;-81
2023/10/10 09:08:43;;;;;;;8.68;3.22;;;17.90;99.90;;;;;;5093704;28;20032;-82
2023/10/10 09:11:11;;;;;;;18.48;3.90;;;17.90;99.90;;;;;;5093288;28;20020;-82
2023/10/10 09:13:57;;;;;;;11.38;3.13;;;17.90;99.90;;;;;;5097847;28;20025;-84
2023/10/10 09:16:44;;;;;;;12.20;3.33;;;18.00;99.90;;;;;;5102528;28;20032;-82
2023/10/10 09:19:10;;;;;;;9.00;3.70;;;17.90;99.90;;;;;;5101477;28;20086;-82
2023/10/10 09:21:50;;;;;;;14.82;3.15;;;18.00;99.90;;;;;;5111980;28;20054;-85
2023/10/10 09:24:28;;;;;;;12.95;3.20;;;18.00;99.90;;;;;;5095739;28;20021;-84
2023/10/10 09:26:59;;;;;;;15.95;3.70;;;18.10;99.90;;;;;;5107932;28;20035;-82
2023/10/10 09:29:34;;;;;;;16.35;3.05;;;18.10;99.90;;;;;;5095068;28;20024;-82
2023/10/10 09:32:05;;;;;;;15.43;3.90;;;18.10;99.90;;;;;;5095809;28;20051;-82
2023/10/10 09:34:40;;;;;;;11.25;3.40;;;18.20;99.90;;;;;;5095185;28;20042;-83
2023/10/10 09:37:14;;;;;;;9.90;3.85;;;18.30;99.90;;;;;;5095913;28;20107;-82
2023/10/10 09:39:42;;;;;;;14.27;3.53;;;18.30;99.90;;;;;;5093558;28;20868;-80
2023/10/10 09:44:53;;;;;;;18.13;3.70;;;18.40;99.90;;;;;;5109111;28;20027;-83
2023/10/10 09:50:29;;;;;;;14.75;3.47;;;18.50;99.90;;;;;;5052338;28;20100;-83
2023/10/10 09:52:58;;;;;;;14.48;4.28;;;18.50;99.90;;;;;;5096827;28;20031;-82
2023/10/10 10:09:16;;;;;;;7.53;2.70;;;19.00;99.90;;;;;;5101567;28;20036;-86
2023/10/10 10:12:19;;;;;;;12.00;3.50;;;19.10;99.90;;;;;;5089699;28;20027;-85
2023/10/10 10:14:56;;;;;;;9.95;2.83;;;19.10;99.90;;;;;;5100224;28;20539;-85
2023/10/10 10:17:53;;;;;;;10.45;3.03;;;19.20;99.90;;;;;;5097336;28;20031;-88
2023/10/10 10:20:33;;;;;;;16.92;2.90;;;19.30;99.90;;;;;;5103406;28;20035;-82
2023/10/10 10:23:00;;;;;;;10.80;2.67;;;19.40;99.90;;;;;;5095051;28;20049;-90
2023/10/10 10:25:36;;;;;;;12.90;3.05;;;19.50;99.90;;;;;;5110074;28;20031;-92
2023/10/10 10:28:10;;;;;;;7.35;2.50;;;19.60;99.90;;;;;;5101017;28;20034;-90
2023/10/10 10:30:50;;;;;;;15.20;2.95;;;19.60;99.90;;;;;;5109174;28;20032;-86
2023/10/10 10:33:22;;;;;;;12.82;3.53;;;19.80;99.90;;;;;;5096199;28;20384;-90
2023/10/10 10:35:56;;;;;;;12.80;2.90;;;19.80;99.90;;;;;;5093196;28;20048;-83
2023/10/10 10:38:26;;;;;;;10.75;3.08;;;19.90;99.90;;;;;;5103650;28;20023;-83
2023/10/10 10:41:04;;;;;;;8.68;2.83;;;20.00;99.90;;;;;;5099298;28;20480;-85
2023/10/10 10:43:32;;;;;;;16.00;3.03;;;20.10;99.90;;;;;;5097459;28;20046;-86
2023/10/10 10:46:27;;;;;;;8.82;2.83;;;20.10;99.90;;;;;;5095235;28;20046;-85
2023/10/10 10:49:01;;;;;;;10.43;2.85;;;20.20;99.90;;;;;;5087154;28;20060;-82
2023/10/10 10:51:41;;;;;;;10.10;2.75;;;20.30;99.90;;;;;;5104761;28;20047;-82
2023/10/10 10:54:07;;;;;;;12.88;3.28;;;20.30;99.90;;;;;;5095128;28;20020;-82
2023/10/10 10:59:12;;;;;;;16.20;2.83;;;20.50;99.90;;;;;;5094518;28;20039;-81
2023/10/10 11:01:55;;;;;;;9.73;2.92;;;20.60;99.90;;;;;;5091743;28;20031;-82
2023/10/10 11:06:59;;;;;;;14.30;3.03;;;20.80;99.90;;;;;;5099479;28;20021;-81
2023/10/10 11:09:31;;;;;;;10.90;2.42;;;20.90;99.70;;;;;;5109210;28;20052;-81
2023/10/10 11:12:05;;;;;;;10.95;2.92;;;21.00;99.30;;;;;;5099056;28;20106;-81
2023/10/10 11:14:32;;;;;;;11.43;2.75;;;21.10;99.20;;;;;;5101048;28;20081;-84
2023/10/10 11:16:58;;;;;;;9.52;2.85;;;21.20;99.10;;;;;;5107760;28;20032;-81
2023/10/10 11:21:56;;;;;;;9.43;2.58;;;21.30;98.90;;;;;;5107892;28;20024;-81
2023/10/10 11:24:26;;;;;;;9.20;3.03;;;21.40;98.90;;;;;;5101732;28;20054;-80
2023/10/10 11:29:42;;;;;;;8.27;3.25;;;21.50;98.30;;;;;;5110024;28;20032;-80
2023/10/10 11:32:11;;;;;;;10.55;2.30;;;21.50;98.20;;;;;;5100632;28;20058;-81
2023/10/10 11:34:49;;;;;;;7.30;2.65;;;21.50;97.50;;;;;;5101930;28;20131;-81
2023/10/10 11:37:23;;;;;;;13.05;3.25;;;21.60;97.00;;;;;;5097108;28;20024;-81
2023/10/10 11:40:19;;;;;;;8.40;2.38;;;21.50;96.80;;;;;;5111067;28;20035;-83
2023/10/10 11:42:47;;;;;;;10.40;2.58;;;21.60;97.00;;;;;;5086363;28;20036;-81
2023/10/10 11:45:19;;;;;;;11.30;2.95;;;21.60;96.90;;;;;;5098312;28;20028;-80
2023/10/10 11:47:47;;;;;;;10.70;3.13;;;21.70;97.00;;;;;;5103017;28;20031;-82
2023/10/10 11:50:15;;;;;;;10.52;2.70;;;21.70;96.40;;;;;;5105037;28;20038;-81
2023/10/10 11:52:53;;;;;;;11.10;2.88;;;21.70;96.30;;;;;;5103352;28;20073;-81
2023/10/10 11:55:23;;;;;;;17.38;3.40;;;21.80;96.30;;;;;;5112870;28;20019;-81
2023/10/10 11:57:49;;;;;;;11.10;2.97;;;21.80;95.30;;;;;;5102583;28;20032;-82
2023/10/10 12:00:22;;;;;;;13.88;3.20;;;21.80;95.10;;;;;;5107324;28;20035;-81
2023/10/10 12:02:51;;;;;;;15.40;2.80;;;21.90;95.00;;;;;;5109890;28;20055;-81
2023/10/10 12:08:00;;;;;;;10.52;2.80;;;22.10;95.30;;;;;;5111535;28;20036;-84
2023/10/10 12:13:19;;;;;;;9.05;2.85;;;22.30;95.00;;;;;;5113965;28;20034;-83
2023/10/10 12:15:45;;;;;;;9.63;2.72;;;22.50;94.90;;;;;;5100344;28;20476;-82
2023/10/10 12:18:11;;;;;;;11.13;2.70;;;22.60;94.20;;;;;;5107223;28;20043;-82
2023/10/10 12:20:46;;;;;;;10.85;3.20;;;22.70;94.00;;;;;;5107095;28;20036;-82
2023/10/10 12:23:12;;;;;;;12.13;3.30;;;22.70;94.00;;;;;;5100426;28;20028;-83
2023/10/10 12:25:43;;;;;;;10.55;2.95;;;22.80;93.90;;;;;;5112832;28;20119;-82
2023/10/10 12:28:12;;;;;;;10.38;2.95;;;22.90;93.20;;;;;;5104192;28;20136;-83
2023/10/10 12:30:40;;;;;;;10.73;2.75;;;23.00;92.60;;;;;;5102881;28;20020;-83
2023/10/10 12:33:13;;;;;;;10.82;3.17;;;23.10;92.40;;;;;;5110206;28;20098;-81
2023/10/10 12:35:46;;;;;;;13.13;3.20;;;23.20;92.40;;;;;;5078776;28;20044;-81
2023/10/10 12:38:20;;;;;;;8.57;2.75;;;23.30;92.10;;;;;;5095123;28;20032;-81
2023/10/10 12:40:47;;;;;;;11.13;3.03;;;23.50;92.00;;;;;;5095550;28;20020;-83
2023/10/10 12:43:13;;;;;;;14.52;2.67;;;23.50;91.30;;;;;;5097611;28;20024;-83
2023/10/10 12:45:38;;;;;;;11.27;2.78;;;23.60;90.90;;;;;;5095143;28;20453;-85
2023/10/10 12:48:13;;;;;;;10.15;3.50;;;23.80;90.50;;;;;;5098655;28;20115;-83
2023/10/10 12:50:42;;;;;;;11.80;3.30;;;24.10;90.00;;;;;;5094933;28;20480;-83
2023/10/10 12:53:07;;;;;;;10.35;2.45;;;24.30;89.30;;;;;;5095558;28;20027;-86
2023/10/10 12:55:48;;;;;;;10.75;2.60;;;24.50;89.50;;;;;;5095995;28;20028;-84
2023/10/10 12:58:16;;;;;;;8.18;2.45;;;24.70;89.20;;;;;;5084451;28;20486;-86
2023/10/10 13:00:50;;;;;;;8.52;2.45;;;24.80;89.30;;;;;;5099785;28;20027;-85
2023/10/10 13:03:20;;;;;;;10.20;2.67;;;24.90;87.00;;;;;;5098616;28;20067;-84
2023/10/10 13:05:47;;;;;;;8.32;2.63;;;25.20;85.60;;;;;;5110258;28;20027;-83
2023/10/10 13:08:17;;;;;;;11.68;2.70;;;25.50;85.30;;;;;;5103533;28;20031;-83
2023/10/10 13:10:44;;;;;;;9.93;3.00;;;25.80;83.60;;;;;;5104820;28;20028;-83
2023/10/10 13:13:10;;;;;;;10.93;2.97;;;26.00;83.10;;;;;;5101152;28;20035;-83
2023/10/10 13:15:50;;;;;;;9.30;2.95;;;26.20;81.80;;;;;;5097134;28;20444;-83
2023/10/10 13:18:19;;;;;;;14.60;3.15;;;26.30;80.00;;;;;;5103470;28;20112;-83
2023/10/10 13:20:50;;;;;;;10.80;3.05;;;26.50;79.90;;;;;;5102206;28;20028;-83
2023/10/10 13:23:17;;;;;;;10.87;3.13;;;26.70;79.70;;;;;;5094813;28;20020;-84
2023/10/10 13:25:42;;;;;;;14.98;3.13;;;26.80;79.10;;;;;;5095253;28;20043;-83
2023/10/10 13:28:09;;;;;;;9.60;3.35;;;27.10;78.10;;;;;;5094157;28;20465;-83
2023/10/10 13:30:38;;;;;;;8.68;3.15;;;27.30;76.80;;;;;;5093112;28;20064;-83
2023/10/10 13:33:06;;;;;;;11.75;3.25;;;27.60;76.50;;;;;;5094514;28;20028;-84
2023/10/10 13:35:32;;;;;;;11.93;3.15;;;27.80;76.10;;;;;;5092940;28;20092;-82
2023/10/10 13:37:58;;;;;;;9.15;2.67;;;28.00;75.70;;;;;;5091767;28;20062;-82
2023/10/10 13:40:23;;;;;;;7.03;2.97;;;28.30;75.30;;;;;;5093607;28;20024;-84
2023/10/10 13:42:49;;;;;;;13.73;3.42;;;28.40;74.80;;;;;;5095930;28;20028;-84
2023/10/10 13:45:21;;;;;;;8.82;2.75;;;28.60;74.40;;;;;;5089053;28;20152;-83
2023/10/10 13:47:48;;;;;;;8.18;3.10;;;28.50;73.80;;;;;;5089184;28;20114;-83
2023/10/10 13:50:40;;;;;;;9.57;2.75;;;28.50;74.20;;;;;;5091082;28;20456;-83
2023/10/10 13:53:07;;;;;;;7.85;3.13;;;28.30;73.50;;;;;;5095523;28;20453;-84
2023/10/10 13:55:38;;;;;;;13.27;3.28;;;28.10;73.60;;;;;;5094407;28;20034;-83
2023/10/10 13:58:07;;;;;;;10.25;2.78;;;27.70;74.40;;;;;;5093092;28;20085;-84
2023/10/10 14:00:35;;;;;;;7.25;2.72;;;27.60;74.60;;;;;;5090985;28;20035;-82
2023/10/10 14:03:03;;;;;;;9.40;2.83;;;27.40;75.00;;;;;;5093396;28;20544;-84
2023/10/10 14:05:33;;;;;;;8.23;2.85;;;27.10;75.00;;;;;;5092204;28;20043;-84
2023/10/10 14:08:03;;;;;;;8.00;2.75;;;26.90;75.80;;;;;;5092815;28;20102;-81
2023/10/10 14:10:39;;;;;;;15.68;3.15;;;26.70;76.10;;;;;;5091838;28;20035;-82
2023/10/10 14:13:20;;;;;;;10.07;3.22;;;26.60;76.30;;;;;;5092204;28;20030;-84
2023/10/10 14:15:57;;;;;;;11.20;3.03;;;26.50;76.70;;;;;;5095390;28;20498;-84
2023/10/10 14:18:49;;;;;;;9.05;2.70;;;26.20;76.60;;;;;;5089271;28;20537;-84
2023/10/10 14:21:17;;;;;;;10.13;3.20;;;26.00;76.40;;;;;;5104447;28;20032;-85
2023/10/10 14:23:46;;;;;;;11.43;3.17;;;25.90;77.20;;;;;;5097571;28;20028;-86
2023/10/10 14:26:12;;;;;;;9.73;2.97;;;25.70;77.50;;;;;;5098298;28;20461;-84
2023/10/10 14:28:41;;;;;;;9.60;2.72;;;25.70;77.60;;;;;;5094045;28;20060;-84
2023/10/10 14:31:12;;;;;;;9.48;2.70;;;25.50;78.00;;;;;;5094205;28;20437;-87
2023/10/10 14:33:39;;;;;;;;;;;25.50;78.10;;;;;;5093674;28;20028;-86
2023/10/10 14:36:11;;;;;;;9.70;3.03;;;25.50;78.90;;;;;;5099743;28;19923;-87
2023/10/10 14:38:37;;;;;;;9.13;3.17;;;25.40;78.90;;;;;;5095602;28;20149;-84
2023/10/10 14:41:02;;;;;;;10.75;2.60;;;25.30;78.90;;;;;;5092296;28;20445;-81
2023/10/10 14:43:28;;;;;;;11.25;2.92;;;25.00;77.40;;;;;;5092345;28;20028;-84
2023/10/10 14:45:54;;;;;;;11.93;3.20;;;24.90;78.00;;;;;;5111957;28;20024;-84
2023/10/10 14:48:19;;;;;;;12.90;3.15;;;24.80;77.60;;;;;;5104372;28;20442;-84
2023/10/10 14:50:52;;;;;;;12.95;3.15;;;24.70;78.40;;;;;;5092648;28;20055;-85
2023/10/10 14:53:24;;;;;;;8.60;3.30;;;24.60;78.30;;;;;;5095035;28;20085;-84
2023/10/10 14:55:53;;;;;;;11.23;3.08;;;24.50;78.90;;;;;;5075823;28;20245;-83
2023/10/10 14:58:21;;;;;;;11.50;3.08;;;24.50;79.10;;;;;;5094295;28;20039;-84
2023/10/10 15:00:52;;;;;;;10.18;3.28;;;24.40;79.20;;;;;;5107092;28;20414;-87
2023/10/10 15:03:23;;;;;;;9.75;3.08;;;24.40;79.70;;;;;;5095185;28;20437;-86
2023/10/10 15:05:50;;;;;;;8.30;2.80;;;24.30;79.40;;;;;;5089819;28;20460;-84
2023/10/10 15:08:17;;;;;;;7.18;2.85;;;24.30;79.30;;;;;;5093880;28;20039;-86
2023/10/10 15:10:43;;;;;;;10.05;2.80;;;24.20;79.90;;;;;;5093888;28;20020;-87
2023/10/10 15:13:10;;;;;;;9.15;2.78;;;24.20;80.10;;;;;;5094155;28;20024;-85
2023/10/10 15:15:35;;;;;;;11.73;2.58;;;24.10;80.00;;;;;;5093345;28;20036;-85
2023/10/10 15:18:01;;;;;;;12.07;2.78;;;24.10;80.30;;;;;;5097780;28;20504;-87
2023/10/10 15:20:27;;;;;;;11.32;3.30;;;24.00;80.90;;;;;;5100415;28;20103;-87
2023/10/10 15:22:53;;;;;;;11.30;3.25;;;24.00;80.90;;;;;;5099344;28;20024;-84
2023/10/10 15:25:21;;;;;;;12.18;3.17;;;24.00;80.80;;;;;;5098682;28;20027;-87
2023/10/10 15:27:47;;;;;;;8.77;2.78;;;23.90;81.00;;;;;;5089700;28;20129;-84
2023/10/10 15:30:15;;;;;;;8.32;3.03;;;23.90;81.30;;;;;;5100007;28;20081;-90
2023/10/10 15:32:46;;;;;;;12.30;3.35;;;23.80;82.00;;;;;;5089601;28;20039;-88
2023/10/10 15:35:13;;;;;;;11.88;3.17;;;23.80;82.00;;;;;;5103377;28;20044;-85
2023/10/10 15:37:44;;;;;;;12.32;3.00;;;23.80;82.10;;;;;;5098196;28;20115;-83
2023/10/10 15:40:21;;;;;;;9.25;2.75;;;23.70;82.20;;;;;;5094602;28;20027;-84
2023/10/10 15:42:51;;;;;;;6.82;2.40;;;23.70;82.40;;;;;;5113375;28;20035;-83
2023/10/10 15:45:23;;;;;;;11.27;2.80;;;23.60;82.60;;;;;;5097470;28;20103;-84
2023/10/10 15:47:49;;;;;;;;;;;23.70;82.60;;;;;;5094999;28;20110;-84
2023/10/10 15:50:18;;;;;;;11.43;3.00;;;23.60;82.50;;;;;;5106319;28;19986;-84
2023/10/10 15:52:51;;;;;;;15.35;2.90;;;23.60;82.50;;;;;;5094062;28;20020;-84
2023/10/10 15:55:23;;;;;;;8.82;3.65;;;23.50;82.50;;;;;;5108436;28;20024;-84
2023/10/10 15:57:52;;;;;;;11.77;2.97;;;23.50;82.50;;;;;;5087221;28;20035;-84